Maersk Drummond — A8JF3 — position and weather

sailwx.info

Track history (hours):
 
Tides and Currents Weather Stations Pressure Air Temp Water Temp Dewpoint Dewpoint Depression Visibility Wind Speed Wind Dir Waves Ship Positions

Maersk Drummond

Last reported at 2014-Oct-24 06:33 UTC. Time now 2014-Oct-25 02:49 UTC.
Position N 29°09' W 094°24'.

Length 294 m; draft 10.1 m.

Type: Ship (hazmat cat A). MMSI: 636091082.

Date/timePositionNaut miles runAvg speedWind from/ knotsBaromVisibWave heightAir tempDewpointWater temp
2014-Oct-24 06:33N 29°09' W 094°24'2311.4
2014-Oct-24 04:33N 29°21' W 094°46'1414.0
2014-Oct-24 03:34N 29°33' W 094°54'10 9.4
2014-Oct-24 02:32N 29°41' W 094°60'0 0.0
2014-Oct-24 01:32N 29°41' W 094°60'0 0.0
2014-Oct-24 00:32N 29°41' W 094°60'0 0.0
2014-Oct-23 23:32N 29°41' W 094°60'0 0.0
2014-Oct-23 22:32N 29°41' W 094°60'0 0.0
2014-Oct-23 21:32N 29°41' W 094°60'0 0.0
2014-Oct-23 20:32N 29°41' W 094°60'0 0.0
2014-Oct-23 19:32N 29°41' W 094°60'0 0.0
2014-Oct-23 18:32N 29°41' W 094°60'0 0.0
2014-Oct-23 17:32N 29°41' W 094°60'0 0.0
2014-Oct-23 16:23N 29°41' W 094°60'0 0.0
2014-Oct-23 15:29N 29°41' W 094°60'0 0.0
2014-Oct-23 14:29N 29°41' W 094°60'0 0.0
2014-Oct-23 13:32N 29°41' W 094°60'0 0.0
2014-Oct-23 12:29N 29°41' W 094°60'0 0.0
2014-Oct-23 11:32N 29°41' W 094°60'0 0.0
2014-Oct-23 10:29N 29°41' W 094°60'0 0.0
2014-Oct-23 09:32N 29°41' W 094°60'0 0.0
2014-Oct-23 08:32N 29°41' W 094°60'0 0.0
2014-Oct-23 07:32N 29°41' W 094°60'0 0.0
2014-Oct-23 06:32N 29°41' W 094°60'0 0.0
2014-Oct-23 05:32N 29°41' W 094°60'0 0.0
2014-Oct-23 04:32N 29°41' W 094°60'0 0.0
2014-Oct-23 03:32N 29°41' W 094°60'0 0.3
2014-Oct-23 02:34N 29°41' W 095°00'7 7.0
2014-Oct-23 01:33N 29°35' W 094°56'1313.1
2014-Oct-23 00:34N 29°23' W 094°49'  
2014-Oct-19 11:34N 19°43' W 096°09'1111.5
2014-Oct-19 10:34N 19°33' W 096°03'1111.2
2014-Oct-19 09:33N 19°23' W 095°58'1010.2
2014-Oct-19 08:34N 19°13' W 096°01'7 6.7
2014-Oct-19 07:34N 19°13' W 096°08'0 0.1
2014-Oct-19 06:32N 19°13' W 096°08'0 0.0
2014-Oct-19 05:32N 19°13' W 096°08'0 0.0
2014-Oct-19 04:32N 19°13' W 096°08'0 0.0
2014-Oct-19 03:32N 19°13' W 096°08'0 0.0
2014-Oct-19 02:32N 19°13' W 096°08'0 0.0
2014-Oct-19 01:32N 19°13' W 096°08'0 0.0
2014-Oct-19 00:32N 19°13' W 096°08'0 0.0
2014-Oct-18 23:32N 19°13' W 096°08'0 0.0
2014-Oct-18 22:32N 19°13' W 096°08'0 0.0
2014-Oct-18 21:32N 19°13' W 096°08'0 0.0
2014-Oct-18 20:32N 19°13' W 096°08'0 0.0
2014-Oct-18 19:32N 19°13' W 096°08'4 3.8
2014-Oct-18 18:33N 19°12' W 096°04'1110.7
2014-Oct-18 17:33N 19°14' W 095°53'1611.5
2014-Oct-18 16:10N 19°19' W 095°37'  
2014-Oct-15 13:08N 25°51' W 079°40'711.7
2014-Oct-15 12:33N 25°54' W 079°47'1211.6
2014-Oct-15 11:33N 26°01' W 079°58'9 8.5
2014-Oct-15 10:33N 26°06' W 080°05'2 1.7
2014-Oct-15 09:25N 26°04' W 080°07'0 0.0
2014-Oct-15 08:28N 26°04' W 080°07'0 0.0
2014-Oct-15 07:28N 26°04' W 080°07'0 0.0
2014-Oct-15 06:28N 26°04' W 080°07'0 0.0
2014-Oct-15 05:31N 26°04' W 080°07'0 0.0
2014-Oct-15 04:31N 26°04' W 080°07'0 0.0
2014-Oct-15 03:31N 26°04' W 080°07'0 0.0
2014-Oct-15 02:31N 26°04' W 080°07'0 0.0
2014-Oct-15 01:31N 26°04' W 080°07'0 0.0
2014-Oct-15 00:31N 26°04' W 080°07'0 0.0
2014-Oct-14 23:31N 26°04' W 080°07'0 0.0
2014-Oct-14 22:19N 26°04' W 080°07'0 0.1
2014-Oct-14 21:33N 26°04' W 080°07'0 0.1
2014-Oct-14 20:31N 26°04' W 080°07'0 0.0
2014-Oct-14 19:31N 26°04' W 080°07'0 0.0
2014-Oct-14 18:31N 26°04' W 080°07'0 0.0
2014-Oct-14 17:22N 26°04' W 080°07'1 0.9
2014-Oct-14 16:33N 26°05' W 080°07'6 5.8
2014-Oct-14 15:33N 26°06' W 080°01'1 1.1
2014-Oct-14 14:33N 26°05' W 079°60'1010.0
2014-Oct-14 13:32N 26°06' W 079°48'1212.3
2014-Oct-14 12:33N 26°08' W 079°35'1211.6
2014-Oct-14 11:33N 26°19' W 079°31'1211.3
2014-Oct-14 10:29N 26°31' W 079°27'  
Track history (hours):
 
Tides and Currents Weather Stations Pressure Air Temp Water Temp Dewpoint Dewpoint Depression Visibility Wind Speed Wind Dir Waves Ship Positions

Maersk Drummond

Last reported at 2014-Oct-24 06:33 UTC. Time now 2014-Oct-25 02:49 UTC.
Position N 29°09' W 094°24'.

Length 294 m; draft 10.1 m.

Type: Ship (hazmat cat A). MMSI: 636091082.

Date/timePositionNaut miles runAvg speedWind from/ knotsBaromVisibWave heightAir tempDewpointWater temp
2014-Oct-24 06:33N 29°09' W 094°24'2311.4
2014-Oct-24 04:33N 29°21' W 094°46'1414.0
2014-Oct-24 03:34N 29°33' W 094°54'10 9.4
2014-Oct-24 02:32N 29°41' W 094°60'0 0.0
2014-Oct-24 01:32N 29°41' W 094°60'0 0.0
2014-Oct-24 00:32N 29°41' W 094°60'0 0.0
2014-Oct-23 23:32N 29°41' W 094°60'0 0.0
2014-Oct-23 22:32N 29°41' W 094°60'0 0.0
2014-Oct-23 21:32N 29°41' W 094°60'0 0.0
2014-Oct-23 20:32N 29°41' W 094°60'0 0.0
2014-Oct-23 19:32N 29°41' W 094°60'0 0.0
2014-Oct-23 18:32N 29°41' W 094°60'0 0.0
2014-Oct-23 17:32N 29°41' W 094°60'0 0.0
2014-Oct-23 16:23N 29°41' W 094°60'0 0.0
2014-Oct-23 15:29N 29°41' W 094°60'0 0.0
2014-Oct-23 14:29N 29°41' W 094°60'0 0.0
2014-Oct-23 13:32N 29°41' W 094°60'0 0.0
2014-Oct-23 12:29N 29°41' W 094°60'0 0.0
2014-Oct-23 11:32N 29°41' W 094°60'0 0.0
2014-Oct-23 10:29N 29°41' W 094°60'0 0.0
2014-Oct-23 09:32N 29°41' W 094°60'0 0.0
2014-Oct-23 08:32N 29°41' W 094°60'0 0.0
2014-Oct-23 07:32N 29°41' W 094°60'0 0.0
2014-Oct-23 06:32N 29°41' W 094°60'0 0.0
2014-Oct-23 05:32N 29°41' W 094°60'0 0.0
2014-Oct-23 04:32N 29°41' W 094°60'0 0.0
2014-Oct-23 03:32N 29°41' W 094°60'0 0.3
2014-Oct-23 02:34N 29°41' W 095°00'7 7.0
2014-Oct-23 01:33N 29°35' W 094°56'1313.1
2014-Oct-23 00:34N 29°23' W 094°49'  
2014-Oct-19 11:34N 19°43' W 096°09'1111.5
2014-Oct-19 10:34N 19°33' W 096°03'1111.2
2014-Oct-19 09:33N 19°23' W 095°58'1010.2
2014-Oct-19 08:34N 19°13' W 096°01'7 6.7
2014-Oct-19 07:34N 19°13' W 096°08'0 0.1
2014-Oct-19 06:32N 19°13' W 096°08'0 0.0
2014-Oct-19 05:32N 19°13' W 096°08'0 0.0
2014-Oct-19 04:32N 19°13' W 096°08'0 0.0
2014-Oct-19 03:32N 19°13' W 096°08'0 0.0
2014-Oct-19 02:32N 19°13' W 096°08'0 0.0
2014-Oct-19 01:32N 19°13' W 096°08'0 0.0
2014-Oct-19 00:32N 19°13' W 096°08'0 0.0
2014-Oct-18 23:32N 19°13' W 096°08'0 0.0
2014-Oct-18 22:32N 19°13' W 096°08'0 0.0
2014-Oct-18 21:32N 19°13' W 096°08'0 0.0
2014-Oct-18 20:32N 19°13' W 096°08'0 0.0
2014-Oct-18 19:32N 19°13' W 096°08'4 3.8
2014-Oct-18 18:33N 19°12' W 096°04'1110.7
2014-Oct-18 17:33N 19°14' W 095°53'1611.5
2014-Oct-18 16:10N 19°19' W 095°37'  
2014-Oct-15 13:08N 25°51' W 079°40'711.7
2014-Oct-15 12:33N 25°54' W 079°47'1211.6
2014-Oct-15 11:33N 26°01' W 079°58'9 8.5
2014-Oct-15 10:33N 26°06' W 080°05'2 1.7
2014-Oct-15 09:25N 26°04' W 080°07'0 0.0
2014-Oct-15 08:28N 26°04' W 080°07'0 0.0
2014-Oct-15 07:28N 26°04' W 080°07'0 0.0
2014-Oct-15 06:28N 26°04' W 080°07'0 0.0
2014-Oct-15 05:31N 26°04' W 080°07'0 0.0
2014-Oct-15 04:31N 26°04' W 080°07'0 0.0
2014-Oct-15 03:31N 26°04' W 080°07'0 0.0
2014-Oct-15 02:31N 26°04' W 080°07'0 0.0
2014-Oct-15 01:31N 26°04' W 080°07'0 0.0
2014-Oct-15 00:31N 26°04' W 080°07'0 0.0
2014-Oct-14 23:31N 26°04' W 080°07'0 0.0
2014-Oct-14 22:19N 26°04' W 080°07'0 0.1
2014-Oct-14 21:33N 26°04' W 080°07'0 0.1
2014-Oct-14 20:31N 26°04' W 080°07'0 0.0
2014-Oct-14 19:31N 26°04' W 080°07'0 0.0
2014-Oct-14 18:31N 26°04' W 080°07'0 0.0
2014-Oct-14 17:22N 26°04' W 080°07'1 0.9
2014-Oct-14 16:33N 26°05' W 080°07'6 5.8
2014-Oct-14 15:33N 26°06' W 080°01'1 1.1
2014-Oct-14 14:33N 26°05' W 079°60'1010.0
2014-Oct-14 13:32N 26°06' W 079°48'1212.3
2014-Oct-14 12:33N 26°08' W 079°35'1211.6
2014-Oct-14 11:33N 26°19' W 079°31'1211.3
2014-Oct-14 10:29N 26°31' W 079°27'  

Dump ship's entire track history